• Join FlightAware (Why Join?)
  • Login
  • US Flag 
12:06AM EDT


 

Airport Tracker/Info


-or-


 

Live Flight TrackerFlight Track Log ✈ N129CG ✈ 28-Apr-2013 ✈ KTMB - MYBS / BIM

Flight Track Log - Related Links

Times and Time Zones

All times are in EDT time to prevent confusion due to time zone crossing. See the N129CG flight status page for this flight to view local times or setup timezone preferences in your user account.

Time Position Orientation Groundspeed Altitude Reporting Facility
EDT Latitude Longitude Course Direction KTS MPH feet Rate Location/Type
08:48AM 25.6400 -80.4267 85° East 116 133 400  Level Miami Center
08:49AM 25.6428 -80.3944 85° East 102 117 1,200 660 Climbing Miami Center
08:50AM 25.6436 -80.3578 89° East 118 136 1,900 360 Climbing Miami Center
08:51AM 25.6508 -80.3186 78° East 133 153 2,000  Climbing Miami Center
08:52AM 25.6539 -80.2797 85° East 131 151 2,000  Level Miami Center
08:53AM 25.6592 -80.2383 82° East 130 150 2,000  Level Miami Center
08:54AM 25.6622 -80.1944 86° East 126 145 2,000  Level Miami Center
08:55AM 25.6694 -80.1508 80° East 128 147 2,100 180 Climbing Miami Center
08:56AM 25.6722 -80.1119 85° East 127 146 2,500 420 Climbing Miami Center
08:57AM 25.6775 -80.0706 82° East 132 152 3,000 540 Climbing Miami Center
08:59AM 25.6831 -80.0061 85° East 134 154 4,000 660 Climbing Miami Center
09:00AM 25.6881 -79.9694 81° East 128 147 4,800 540 Climbing Miami Center
09:01AM 25.6908 -79.9278 86° East 128 147 5,100 60 Climbing Miami Center
09:02AM 25.6939 -79.8842 86° East 128 147 5,000 -60 Descending Miami Center
09:03AM 25.6928 -79.8403 92° East 133 153 5,000  Level Miami Center
09:04AM 25.6936 -79.7967 89° East 138 159 5,000  Level Miami Center
09:05AM 25.6944 -79.7528 89° East 138 159 5,000  Level Miami Center
09:06AM 25.6933 -79.7089 92° East 138 159 5,000  Level Miami Center
09:07AM 25.6939 -79.6675 89° East 138 159 5,000  Level Miami Center
09:08AM 25.6989 -79.6239 83° East 138 159 5,000 -240 Level Miami Center
09:09AM 25.6978 -79.5778 92° East 143 165 4,600 -420 Descending Miami Center